Time;durP1;ratioP1;P1;durP2;ratioP2;P2;SDS_P1;SDS_P2;PMS_P1;PMS_P2;Temp;Humidity;BMP_temperature;BMP_pressure;BME280_temperature;BME280_humidity;BME280_pressure;Samples;Min_cycle;Max_cycle;Signal;HPM_P1;HPM_P2
2022/04/13 00:00:16;;;;;;;0.50;0.10;;;28.40;37.90;;;;;;5047286;28;20131;-53
2022/04/13 00:02:44;;;;;;;0.40;0.30;;;28.40;37.90;;;;;;5049175;28;20044;-50
2022/04/13 00:05:11;;;;;;;0.50;0.10;;;28.30;37.80;;;;;;5066984;28;20056;-52
2022/04/13 00:07:38;;;;;;;0.47;0.10;;;28.40;37.90;;;;;;5065532;28;20131;-52
2022/04/13 00:10:07;;;;;;;3.80;0.30;;;28.30;37.80;;;;;;5040104;28;20049;-54
2022/04/13 00:12:35;;;;;;;2.15;0.10;;;28.40;37.80;;;;;;5055763;28;20144;-52
2022/04/13 00:15:05;;;;;;;0.30;0.25;;;28.40;37.80;;;;;;5062101;28;20283;-52
2022/04/13 00:17:33;;;;;;;1.25;0.10;;;28.30;37.70;;;;;;5046987;28;20742;-50
2022/04/13 00:20:00;;;;;;;0.10;0.00;;;28.30;37.80;;;;;;5066411;28;20048;-52
2022/04/13 00:22:27;;;;;;;0.32;0.03;;;28.30;37.70;;;;;;5060714;28;20048;-54
2022/04/13 00:24:54;;;;;;;1.33;0.00;;;28.30;37.70;;;;;;5064714;28;20123;-54
2022/04/13 00:27:22;;;;;;;0.20;0.20;;;28.30;37.70;;;;;;5063718;28;20056;-50
2022/04/13 00:29:49;;;;;;;0.13;0.10;;;28.30;37.70;;;;;;5048783;28;20064;-52
2022/04/13 00:32:17;;;;;;;0.10;0.10;;;28.30;37.70;;;;;;5065526;28;20041;-56
2022/04/13 00:34:44;;;;;;;0.28;0.10;;;28.30;37.70;;;;;;5062403;28;20527;-54
2022/04/13 00:37:12;;;;;;;0.08;0.00;;;28.30;37.70;;;;;;5062465;28;20040;-52
2022/04/13 00:39:39;;;;;;;1.55;0.00;;;28.30;37.70;;;;;;5058463;28;20644;-55
2022/04/13 00:42:08;;;;;;;0.20;0.00;;;28.30;37.70;;;;;;5052182;28;20097;-53
2022/04/13 00:44:35;;;;;;;1.75;0.10;;;28.20;37.70;;;;;;5062427;28;20464;-51
2022/04/13 00:47:06;;;;;;;0.20;0.10;;;28.30;37.80;;;;;;5032104;28;20056;-54
2022/04/13 00:49:37;;;;;;;0.08;0.00;;;28.20;37.60;;;;;;5063638;28;20135;-55
2022/04/13 00:52:06;;;;;;;0.10;0.10;;;28.30;37.70;;;;;;5061822;28;20048;-54
2022/04/13 00:54:35;;;;;;;1.45;0.00;;;28.30;37.70;;;;;;5064437;28;20041;-51
2022/04/13 00:57:10;;;;;;;0.10;0.00;;;28.30;37.70;;;;;;5063227;28;20508;-54
2022/04/13 00:59:38;;;;;;;0.20;0.00;;;28.20;37.60;;;;;;5045565;28;20054;-53
2022/04/13 01:02:07;;;;;;;0.17;0.00;;;28.20;37.60;;;;;;5080436;28;20044;-55
2022/04/13 01:04:37;;;;;;;2.95;0.10;;;28.20;37.60;;;;;;5061511;28;20038;-53
2022/04/13 01:07:08;;;;;;;0.03;0.00;;;28.30;37.70;;;;;;5062792;28;20143;-54
2022/04/13 01:09:36;;;;;;;0.88;0.00;;;28.30;37.70;;;;;;5045934;28;20050;-55
2022/04/13 01:12:05;;;;;;;0.40;0.40;;;28.20;37.60;;;;;;5062285;28;20049;-55
2022/04/13 01:14:34;;;;;;;0.63;0.00;;;28.20;37.60;;;;;;5062321;28;20159;-53
2022/04/13 01:17:01;;;;;;;0.90;0.00;;;28.20;37.60;;;;;;5065157;28;20090;-54
2022/04/13 01:19:31;;;;;;;0.10;0.00;;;28.30;37.60;;;;;;5045738;28;20097;-51
2022/04/13 01:22:03;;;;;;;1.00;0.00;;;28.20;37.60;;;;;;5062676;28;20449;-51
2022/04/13 01:24:33;;;;;;;0.90;0.10;;;28.20;37.60;;;;;;5064116;28;20040;-49
2022/04/13 01:27:01;;;;;;;0.00;0.00;;;28.20;37.60;;;;;;5063795;28;20045;-53
2022/04/13 01:29:28;;;;;;;0.00;0.00;;;28.20;37.60;;;;;;5063772;28;20151;-52
2022/04/13 01:31:55;;;;;;;0.40;0.00;;;28.20;37.50;;;;;;5045225;28;20044;-54
2022/04/13 01:34:22;;;;;;;0.65;0.40;;;28.20;37.50;;;;;;5063619;28;20044;-52
2022/04/13 01:36:49;;;;;;;0.28;0.00;;;28.20;37.50;;;;;;5061123;28;20135;-52
2022/04/13 01:39:16;;;;;;;0.17;0.17;;;28.20;37.50;;;;;;5060915;28;20067;-51
2022/04/13 01:41:48;;;;;;;1.38;0.20;;;28.20;37.50;;;;;;5047417;28;20049;-50
2022/04/13 01:44:15;;;;;;;1.27;0.00;;;28.20;37.50;;;;;;5064736;28;20317;-52
2022/04/13 01:46:42;;;;;;;0.75;0.20;;;28.20;37.50;;;;;;5063283;28;20041;-51
2022/04/13 01:49:09;;;;;;;0.10;0.10;;;28.20;37.50;;;;;;5045098;28;20649;-54
2022/04/13 01:51:37;;;;;;;2.35;0.22;;;28.20;37.50;;;;;;5062049;28;20516;-52
2022/04/13 01:54:04;;;;;;;0.85;0.10;;;28.20;37.50;;;;;;5045820;28;20068;-55
2022/04/13 01:56:31;;;;;;;0.30;0.05;;;28.20;37.50;;;;;;5063672;28;20055;-52
2022/04/13 01:59:00;;;;;;;1.00;0.10;;;28.20;37.50;;;;;;5064561;28;20131;-54
2022/04/13 02:01:27;;;;;;;1.50;0.10;;;28.10;37.50;;;;;;5061638;28;20044;-50
2022/04/13 02:03:54;;;;;;;0.38;0.10;;;28.10;37.50;;;;;;5061159;28;20059;-53
2022/04/13 02:06:21;;;;;;;0.17;0.17;;;28.10;37.50;;;;;;5063008;28;20082;-52
2022/04/13 02:08:49;;;;;;;1.27;0.25;;;28.10;37.60;;;;;;5062544;28;20139;-49
2022/04/13 02:11:16;;;;;;;0.38;0.00;;;28.10;37.60;;;;;;5064136;28;20048;-50
2022/04/13 02:13:43;;;;;;;0.20;0.20;;;28.10;37.70;;;;;;5061571;28;20045;-55
2022/04/13 02:16:11;;;;;;;1.17;0.10;;;28.10;37.70;;;;;;5062777;28;20041;-50
2022/04/13 02:18:40;;;;;;;0.13;0.03;;;28.10;37.70;;;;;;5059315;28;20041;-53
2022/04/13 02:21:07;;;;;;;2.05;0.10;;;28.10;37.70;;;;;;5048278;28;20045;-53
2022/04/13 02:23:34;;;;;;;2.17;0.10;;;28.10;37.70;;;;;;5062404;28;20053;-54
2022/04/13 02:26:02;;;;;;;0.40;0.20;;;28.10;37.70;;;;;;5064879;28;20079;-53
2022/04/13 02:28:29;;;;;;;2.55;0.00;;;28.10;37.70;;;;;;5044104;28;20071;-53
2022/04/13 02:30:56;;;;;;;1.08;0.03;;;28.10;37.80;;;;;;5060472;28;20044;-52
2022/04/13 02:33:25;;;;;;;1.40;0.32;;;28.10;37.80;;;;;;5062242;28;20058;-52
2022/04/13 02:35:52;;;;;;;1.05;0.10;;;28.10;37.90;;;;;;5062735;28;20037;-52
2022/04/13 02:38:19;;;;;;;0.47;0.10;;;28.10;38.00;;;;;;5063000;28;20207;-51
2022/04/13 02:40:46;;;;;;;0.95;0.03;;;28.10;38.00;;;;;;5046186;28;20052;-52
2022/04/13 02:43:13;;;;;;;0.20;0.00;;;28.10;38.10;;;;;;5062048;28;20048;-51
2022/04/13 02:45:40;;;;;;;0.65;0.10;;;28.10;38.10;;;;;;5062654;28;20048;-54
2022/04/13 02:48:08;;;;;;;0.43;0.00;;;28.10;38.10;;;;;;5060459;28;20152;-54
2022/04/13 02:50:37;;;;;;;0.30;0.10;;;28.10;38.20;;;;;;5062470;28;20045;-55
2022/04/13 02:53:04;;;;;;;0.35;0.20;;;28.10;38.20;;;;;;5066926;28;20050;-51
2022/04/13 02:55:31;;;;;;;0.30;0.30;;;28.10;38.30;;;;;;5062886;28;20123;-56
2022/04/13 02:57:58;;;;;;;0.32;0.10;;;28.10;38.40;;;;;;5062533;28;20063;-54
2022/04/13 03:00:25;;;;;;;0.52;0.20;;;28.00;38.30;;;;;;5061656;28;20832;-52
2022/04/13 03:02:53;;;;;;;0.75;0.40;;;28.00;38.40;;;;;;5064799;28;20068;-52
2022/04/13 03:05:20;;;;;;;0.20;0.20;;;28.00;38.40;;;;;;5067369;28;20052;-51
2022/04/13 03:07:48;;;;;;;1.52;0.10;;;28.00;38.50;;;;;;5065916;28;20089;-55
2022/04/13 03:10:15;;;;;;;1.88;0.30;;;28.00;38.50;;;;;;5064261;28;20647;-50
2022/04/13 03:12:43;;;;;;;0.10;0.10;;;28.00;38.50;;;;;;5066709;28;20051;-50
2022/04/13 03:15:11;;;;;;;0.22;0.10;;;28.00;38.60;;;;;;5064560;28;20579;-51
2022/04/13 03:17:38;;;;;;;1.55;0.10;;;28.00;38.60;;;;;;5066778;28;20868;-53
2022/04/13 03:20:07;;;;;;;0.88;0.17;;;28.00;38.70;;;;;;5068596;28;20048;-52
2022/04/13 03:22:34;;;;;;;2.53;0.10;;;28.00;38.70;;;;;;5066505;28;20052;-55
2022/04/13 03:25:04;;;;;;;0.90;0.25;;;28.00;38.70;;;;;;5066379;28;20123;-54
2022/04/13 03:27:31;;;;;;;4.40;0.08;;;28.00;38.70;;;;;;5051735;28;20040;-52
2022/04/13 03:29:58;;;;;;;0.65;0.20;;;28.00;38.70;;;;;;5066275;28;20768;-53
2022/04/13 03:32:25;;;;;;;0.30;0.28;;;28.00;38.70;;;;;;5067168;28;20072;-50
2022/04/13 03:34:52;;;;;;;1.55;0.03;;;28.00;38.80;;;;;;5068055;28;20072;-53
2022/04/13 03:37:19;;;;;;;0.73;0.10;;;28.00;38.70;;;;;;5063907;28;20036;-50
2022/04/13 03:39:46;;;;;;;0.68;0.57;;;28.00;38.80;;;;;;5065200;28;20058;-53
2022/04/13 03:42:15;;;;;;;1.40;0.10;;;28.00;38.80;;;;;;5062982;28;20040;-53
2022/04/13 03:44:42;;;;;;;0.40;0.20;;;28.00;38.80;;;;;;5064410;28;20067;-54
2022/04/13 03:47:09;;;;;;;0.40;0.40;;;28.00;38.80;;;;;;5052238;28;20037;-54
2022/04/13 03:49:36;;;;;;;0.30;0.00;;;28.00;38.80;;;;;;5065421;28;20402;-50
2022/04/13 03:52:03;;;;;;;0.30;0.10;;;28.00;38.90;;;;;;5065046;28;20119;-62
2022/04/13 03:54:30;;;;;;;3.53;0.32;;;28.00;38.90;;;;;;5067490;28;20111;-59
2022/04/13 03:56:57;;;;;;;2.50;0.00;;;27.90;38.80;;;;;;5067482;28;20493;-58
2022/04/13 03:59:26;;;;;;;1.13;0.20;;;27.80;38.80;;;;;;5068953;28;20090;-59
2022/04/13 04:01:53;;;;;;;3.33;0.73;;;27.60;38.90;;;;;;5050424;28;20529;-60
2022/04/13 04:04:21;;;;;;;1.88;0.10;;;27.40;39.10;;;;;;5058873;28;20045;-59
2022/04/13 04:06:48;;;;;;;0.00;0.00;;;27.20;39.40;;;;;;5061754;28;20043;-59
2022/04/13 04:09:15;;;;;;;1.67;0.10;;;27.10;39.70;;;;;;5068520;28;20048;-60
2022/04/13 04:11:42;;;;;;;0.88;0.10;;;27.00;40.60;;;;;;5067766;28;20040;-60
2022/04/13 04:14:09;;;;;;;1.33;0.10;;;26.80;40.30;;;;;;5067673;28;20041;-60
2022/04/13 04:16:37;;;;;;;0.40;0.10;;;26.70;40.50;;;;;;5057703;28;20044;-60
2022/04/13 04:19:04;;;;;;;2.28;0.10;;;26.60;40.80;;;;;;5061892;28;20066;-59
2022/04/13 04:21:31;;;;;;;0.32;0.10;;;26.50;41.00;;;;;;5066575;28;20036;-59
2022/04/13 04:23:59;;;;;;;0.98;0.13;;;26.40;41.20;;;;;;5067102;28;20072;-59
2022/04/13 04:26:26;;;;;;;1.00;0.10;;;26.30;41.40;;;;;;5066261;28;20378;-59
2022/04/13 04:28:53;;;;;;;0.63;0.10;;;26.20;41.60;;;;;;5069867;28;20390;-59
2022/04/13 04:31:49;;;;;;;1.88;0.10;;;26.10;41.80;;;;;;5066808;28;20044;-58
2022/04/13 04:34:09;;;;;;;2.10;0.10;;;26.00;42.60;;;;;;5067388;28;20049;-58
2022/04/13 04:36:36;;;;;;;0.45;0.10;;;26.00;42.30;;;;;;5066151;28;20044;-58
2022/04/13 04:39:04;;;;;;;0.10;0.10;;;25.90;42.50;;;;;;5049459;28;20054;-58
2022/04/13 04:41:31;;;;;;;0.70;0.40;;;25.80;42.70;;;;;;5066340;28;20048;-58
2022/04/13 04:43:58;;;;;;;2.00;0.10;;;25.80;42.90;;;;;;5069685;28;20043;-59
2022/04/13 04:46:25;;;;;;;0.10;0.10;;;25.70;43.10;;;;;;5046638;28;20083;-59
2022/04/13 04:48:52;;;;;;;3.17;0.13;;;25.70;43.20;;;;;;5068273;28;20048;-59
2022/04/13 04:51:20;;;;;;;0.28;0.20;;;25.70;43.70;;;;;;5065957;28;20045;-60
2022/04/13 04:53:48;;;;;;;3.90;0.17;;;25.60;43.80;;;;;;5064995;28;20075;-59
2022/04/13 04:56:15;;;;;;;0.25;0.10;;;25.50;43.80;;;;;;5070733;28;20120;-59
2022/04/13 04:58:42;;;;;;;0.10;0.05;;;25.50;43.90;;;;;;5068358;28;20501;-60
2022/04/13 05:01:10;;;;;;;0.40;0.10;;;25.50;44.10;;;;;;5064345;28;20037;-59
2022/04/13 05:03:38;;;;;;;2.95;0.10;;;25.40;44.10;;;;;;5065336;28;20069;-60
2022/04/13 05:06:05;;;;;;;3.50;0.10;;;25.40;44.30;;;;;;5067356;28;20098;-60
2022/04/13 05:08:34;;;;;;;2.13;0.40;;;25.30;44.20;;;;;;5066015;28;20133;-59
2022/04/13 05:11:02;;;;;;;0.20;0.20;;;25.30;44.50;;;;;;5067863;28;20040;-59
2022/04/13 05:13:30;;;;;;;1.35;0.57;;;25.30;44.70;;;;;;5065691;28;20422;-59
2022/04/13 05:15:57;;;;;;;5.22;0.20;;;25.20;44.70;;;;;;5064584;28;20037;-59
2022/04/13 05:18:24;;;;;;;0.25;0.10;;;25.20;44.70;;;;;;5065119;28;20459;-59
2022/04/13 05:20:51;;;;;;;0.30;0.10;;;25.20;44.80;;;;;;5063626;28;20037;-59
2022/04/13 05:23:18;;;;;;;4.03;0.10;;;25.20;44.80;;;;;;5064649;28;20046;-59
2022/04/13 05:25:47;;;;;;;0.82;0.22;;;25.10;44.80;;;;;;5067344;28;20070;-59
2022/04/13 05:28:15;;;;;;;0.47;0.25;;;25.10;44.80;;;;;;5065184;28;20129;-59
2022/04/13 05:30:42;;;;;;;1.60;0.10;;;25.10;45.00;;;;;;5066080;28;20048;-59
2022/04/13 05:33:09;;;;;;;1.27;0.30;;;25.00;45.00;;;;;;5065232;28;20048;-59
2022/04/13 05:35:36;;;;;;;2.47;0.10;;;25.00;45.20;;;;;;5067035;28;20127;-58
2022/04/13 05:38:05;;;;;;;0.30;0.00;;;25.00;45.40;;;;;;5068425;28;20048;-59
2022/04/13 05:40:32;;;;;;;0.32;0.10;;;25.00;45.50;;;;;;5065659;28;20040;-59
2022/04/13 05:43:00;;;;;;;0.30;0.10;;;25.00;45.50;;;;;;5066195;28;20129;-59
2022/04/13 05:45:27;;;;;;;1.85;0.30;;;25.00;45.60;;;;;;5045933;28;20086;-59
2022/04/13 05:47:54;;;;;;;0.55;0.10;;;24.90;45.60;;;;;;5066225;28;20075;-59
2022/04/13 05:50:21;;;;;;;0.10;0.00;;;24.90;45.70;;;;;;5066489;28;20047;-59
2022/04/13 05:52:48;;;;;;;0.60;0.10;;;24.90;45.70;;;;;;5063783;28;20052;-60
2022/04/13 05:55:15;;;;;;;1.85;0.10;;;24.90;45.60;;;;;;5065549;28;20074;-59
2022/04/13 05:57:43;;;;;;;0.10;0.10;;;24.90;45.70;;;;;;5062360;28;20095;-59
2022/04/13 06:00:13;;;;;;;0.95;0.30;;;24.90;45.80;;;;;;5054291;28;20463;-59
2022/04/13 06:02:41;;;;;;;1.17;0.10;;;24.90;45.70;;;;;;5045806;28;20044;-59
2022/04/13 06:05:09;;;;;;;1.67;0.20;;;24.90;45.80;;;;;;5067633;28;20044;-59
2022/04/13 06:07:37;;;;;;;0.55;0.10;;;24.90;45.70;;;;;;5063852;28;20568;-57
2022/04/13 06:10:05;;;;;;;0.93;0.00;;;24.90;45.70;;;;;;5064870;28;20127;-59
2022/04/13 06:12:33;;;;;;;2.08;0.10;;;24.90;45.80;;;;;;5053801;28;20147;-59
2022/04/13 06:15:08;;;;;;;1.45;0.38;;;24.90;46.10;;;;;;5064571;28;20461;-58
2022/04/13 06:17:37;;;;;;;0.80;0.10;;;24.90;46.30;;;;;;5048702;28;20053;-58
2022/04/13 06:20:06;;;;;;;0.20;0.10;;;24.90;46.40;;;;;;5049074;28;20841;-59
2022/04/13 06:22:37;;;;;;;1.13;0.20;;;24.80;46.50;;;;;;5065137;28;20044;-59
2022/04/13 06:25:05;;;;;;;1.35;0.40;;;24.80;46.70;;;;;;5065709;28;20072;-60
2022/04/13 06:27:32;;;;;;;0.25;0.10;;;24.80;46.80;;;;;;5048602;28;20037;-70
2022/04/13 06:29:59;;;;;;;3.42;0.22;;;24.80;46.90;;;;;;5072640;28;20795;-65
2022/04/13 06:32:32;;;;;;;10.35;0.10;;;24.80;46.80;;;;;;5073601;28;20063;-65
2022/04/13 06:35:01;;;;;;;0.50;0.10;;;24.80;47.00;;;;;;5067319;28;20124;-66
2022/04/13 06:37:29;;;;;;;3.33;0.32;;;24.80;47.20;;;;;;5062467;28;20584;-66
2022/04/13 06:39:56;;;;;;;5.25;0.10;;;24.80;47.10;;;;;;5065887;28;20581;-65
2022/04/13 06:42:23;;;;;;;6.45;0.00;;;24.80;47.10;;;;;;5065515;28;20044;-65
2022/04/13 06:44:53;;;;;;;7.82;0.20;;;24.80;47.00;;;;;;5066312;28;20464;-66
2022/04/13 06:47:20;;;;;;;2.70;0.10;;;24.90;47.00;;;;;;5066646;28;20048;-65
2022/04/13 06:49:47;;;;;;;3.92;0.10;;;24.90;46.90;;;;;;5066204;28;20505;-65
2022/04/13 06:52:16;;;;;;;2.28;0.10;;;24.80;46.90;;;;;;5066606;28;20044;-65
2022/04/13 06:54:43;;;;;;;4.50;1.17;;;24.90;46.80;;;;;;5063155;28;20497;-66
2022/04/13 06:57:10;;;;;;;3.03;0.10;;;24.80;46.70;;;;;;5065806;28;20496;-65
2022/04/13 06:59:37;;;;;;;1.17;0.10;;;24.80;46.70;;;;;;5065425;28;20071;-65
2022/04/13 07:02:06;;;;;;;2.42;0.75;;;24.80;46.60;;;;;;5067779;28;20048;-66
2022/04/13 07:04:34;;;;;;;2.60;0.20;;;24.80;46.60;;;;;;5046791;28;20043;-67
2022/04/13 07:07:02;;;;;;;6.43;0.10;;;24.80;46.60;;;;;;5070839;28;20044;-66
2022/04/13 07:09:31;;;;;;;3.92;0.10;;;24.80;46.50;;;;;;5075388;28;20136;-66
2022/04/13 07:11:58;;;;;;;6.80;0.20;;;24.80;46.50;;;;;;5065660;28;20123;-66
2022/04/13 07:14:25;;;;;;;1.13;0.52;;;24.80;46.50;;;;;;5066227;28;20143;-66
2022/04/13 07:16:53;;;;;;;0.98;0.10;;;24.80;46.40;;;;;;5064827;28;20420;-66
2022/04/13 07:19:20;;;;;;;2.00;0.10;;;24.80;46.40;;;;;;5064266;28;20123;-66
2022/04/13 07:21:47;;;;;;;1.20;0.10;;;24.80;46.40;;;;;;5063593;28;20135;-66
2022/04/13 07:24:14;;;;;;;4.35;0.20;;;24.80;46.30;;;;;;5062419;28;20062;-66
2022/04/13 07:26:42;;;;;;;1.02;0.10;;;24.80;46.30;;;;;;5044727;28;20492;-66
2022/04/13 07:29:10;;;;;;;3.28;0.17;;;24.80;46.30;;;;;;5031920;28;20076;-65
2022/04/13 07:31:37;;;;;;;0.93;0.15;;;24.80;46.30;;;;;;5062550;28;20095;-67
2022/04/13 07:34:04;;;;;;;3.88;0.45;;;24.70;46.20;;;;;;5062429;28;20495;-65
2022/04/13 07:36:32;;;;;;;1.48;0.40;;;24.80;46.20;;;;;;5044985;28;20075;-65
2022/04/13 07:38:59;;;;;;;10.13;0.50;;;24.80;46.20;;;;;;5062452;28;20171;-66
2022/04/13 07:41:26;;;;;;;2.70;0.30;;;24.70;46.20;;;;;;5065273;28;20047;-66
2022/04/13 07:43:57;;;;;;;5.18;0.63;;;24.70;46.20;;;;;;5064942;28;20051;-65
2022/04/13 07:46:25;;;;;;;3.20;0.55;;;24.70;46.20;;;;;;5053448;28;20045;-65
2022/04/13 07:48:53;;;;;;;6.05;0.93;;;24.70;46.20;;;;;;5059076;28;20559;-65
2022/04/13 07:51:20;;;;;;;1.33;0.40;;;24.70;46.10;;;;;;5069007;28;20129;-65
2022/04/13 07:53:48;;;;;;;3.60;0.88;;;24.70;46.10;;;;;;5065433;28;20040;-65
2022/04/13 07:56:15;;;;;;;3.03;0.75;;;24.70;46.10;;;;;;5070153;28;20049;-66
2022/04/13 07:58:42;;;;;;;2.78;0.82;;;24.70;46.70;;;;;;5066281;28;20040;-66
2022/04/13 08:01:11;;;;;;;5.35;1.00;;;24.70;46.10;;;;;;5066351;28;20094;-66
2022/04/13 08:03:38;;;;;;;2.25;0.50;;;24.70;46.10;;;;;;5065901;28;20044;-66
2022/04/13 08:06:07;;;;;;;5.18;0.80;;;24.70;46.10;;;;;;5068874;28;20055;-66
2022/04/13 08:08:34;;;;;;;5.22;0.75;;;24.70;46.10;;;;;;5068400;28;20036;-66
2022/04/13 08:11:01;;;;;;;7.18;0.98;;;24.70;46.10;;;;;;5069101;28;20106;-66
2022/04/13 08:13:28;;;;;;;5.60;1.00;;;24.70;46.10;;;;;;5068588;28;20066;-66
2022/04/13 08:15:55;;;;;;;2.85;0.52;;;24.70;46.10;;;;;;5067220;28;20113;-66
2022/04/13 08:18:25;;;;;;;2.03;0.77;;;24.70;46.10;;;;;;5065809;28;20082;-67
2022/04/13 08:20:52;;;;;;;1.27;1.10;;;24.70;46.10;;;;;;5068187;28;20410;-66
2022/04/13 08:23:19;;;;;;;2.38;0.60;;;24.70;46.10;;;;;;5068786;28;20487;-66
2022/04/13 08:25:46;;;;;;;2.40;0.70;;;24.70;46.10;;;;;;5069671;28;20048;-67
2022/04/13 08:28:14;;;;;;;2.47;0.77;;;24.70;46.10;;;;;;5068328;28;20052;-65
2022/04/13 08:30:41;;;;;;;2.25;1.15;;;24.70;46.10;;;;;;5067468;28;20044;-68
2022/04/13 08:33:08;;;;;;;5.35;0.30;;;24.70;46.70;;;;;;5067211;28;20044;-67
2022/04/13 08:35:37;;;;;;;2.45;0.75;;;24.70;46.10;;;;;;5068522;28;20811;-66
2022/04/13 08:38:04;;;;;;;1.38;0.40;;;24.70;46.10;;;;;;5069636;28;20131;-66
2022/04/13 08:40:38;;;;;;;1.35;0.30;;;24.70;46.10;;;;;;5067920;28;20078;-66
2022/04/13 08:43:09;;;;;;;2.88;0.40;;;24.70;46.10;;;;;;5068225;28;20040;-66
2022/04/13 08:45:43;;;;;;;1.95;0.50;;;24.70;46.10;;;;;;5067691;28;20040;-55
2022/04/13 08:48:13;;;;;;;4.00;0.60;;;24.60;46.00;;;;;;5067752;28;20058;-66
2022/04/13 08:50:46;;;;;;;1.80;0.20;;;24.70;46.20;;;;;;5067542;28;20032;-65
2022/04/13 08:53:15;;;;;;;3.50;0.75;;;24.70;46.20;;;;;;5065261;28;20056;-66
2022/04/13 08:55:50;;;;;;;1.83;0.40;;;24.70;46.10;;;;;;5068237;28;20041;-66
2022/04/13 08:58:29;;;;;;;3.23;0.40;;;24.70;46.10;;;;;;5067380;28;20465;-66
2022/04/13 09:01:00;;;;;;;0.38;0.20;;;24.70;46.10;;;;;;5048782;28;20059;-66
2022/04/13 09:03:38;;;;;;;5.03;0.32;;;24.60;46.00;;;;;;5067640;28;20469;-66
2022/04/13 09:06:09;;;;;;;1.58;0.30;;;24.70;46.10;;;;;;5068050;28;20056;-66
2022/04/13 09:08:43;;;;;;;4.38;0.30;;;24.60;46.00;;;;;;5067255;28;20094;-66
2022/04/13 09:11:11;;;;;;;5.68;0.90;;;24.70;46.10;;;;;;5064996;28;20055;-66
2022/04/13 09:13:39;;;;;;;4.07;0.77;;;24.70;46.10;;;;;;5065406;28;20516;-66
2022/04/13 09:16:06;;;;;;;0.88;0.30;;;24.60;46.10;;;;;;5069001;28;20501;-66
2022/04/13 09:18:34;;;;;;;2.95;0.30;;;24.60;46.00;;;;;;5064041;28;20048;-66
2022/04/13 09:21:02;;;;;;;1.95;0.40;;;24.60;46.00;;;;;;5067681;28;20044;-66
2022/04/13 09:23:31;;;;;;;3.00;0.25;;;24.70;46.00;;;;;;5067480;28;20045;-66
2022/04/13 09:25:59;;;;;;;2.85;0.80;;;24.70;46.00;;;;;;5065971;28;20149;-66
2022/04/13 09:28:27;;;;;;;3.17;0.60;;;24.70;46.10;;;;;;5067024;28;20056;-66
2022/04/13 09:30:55;;;;;;;1.15;0.65;;;24.70;46.10;;;;;;5064212;28;20519;-66
2022/04/13 09:33:23;;;;;;;3.72;0.25;;;24.70;46.00;;;;;;5066616;28;20046;-66
2022/04/13 09:35:50;;;;;;;0.65;0.20;;;24.70;46.00;;;;;;5064770;28;20060;-66
2022/04/13 09:38:19;;;;;;;2.17;0.30;;;24.70;46.00;;;;;;5066990;28;20052;-65
2022/04/13 09:40:50;;;;;;;2.90;0.43;;;24.70;46.00;;;;;;5068330;28;20044;-67
2022/04/13 09:43:20;;;;;;;0.68;0.20;;;24.70;46.00;;;;;;5066638;28;20059;-66
2022/04/13 09:45:49;;;;;;;1.42;0.82;;;24.70;46.60;;;;;;5067246;28;20045;-67
2022/04/13 09:48:19;;;;;;;2.88;0.20;;;24.70;46.00;;;;;;5064447;28;20040;-65
2022/04/13 09:50:48;;;;;;;0.82;0.25;;;24.80;46.00;;;;;;5048742;28;20120;-66
2022/04/13 09:53:17;;;;;;;1.90;0.20;;;24.80;46.00;;;;;;5049370;28;20047;-65
2022/04/13 09:55:46;;;;;;;3.45;0.45;;;24.80;46.00;;;;;;5044192;28;20050;-66
2022/04/13 09:58:16;;;;;;;0.65;0.20;;;24.80;45.90;;;;;;5065441;28;20044;-66
2022/04/13 10:00:47;;;;;;;0.57;0.22;;;24.80;45.90;;;;;;5063636;28;20052;-67
2022/04/13 10:03:16;;;;;;;0.90;0.20;;;24.80;45.90;;;;;;5065577;28;20048;-66
2022/04/13 10:05:44;;;;;;;5.78;0.73;;;24.80;45.90;;;;;;5050279;28;20032;-65
2022/04/13 10:08:13;;;;;;;0.55;0.55;;;24.80;45.80;;;;;;5048244;28;20052;-66
2022/04/13 10:10:45;;;;;;;4.05;0.35;;;24.80;45.80;;;;;;5045664;28;20041;-66
2022/04/13 10:13:30;;;;;;;0.95;0.10;;;24.90;45.90;;;;;;5062650;28;20072;-66
2022/04/13 10:15:59;;;;;;;3.55;0.52;;;24.90;45.90;;;;;;5066199;28;20055;-66
2022/04/13 10:18:27;;;;;;;1.83;0.30;;;24.90;45.80;;;;;;5066288;28;20125;-66
2022/04/13 10:20:55;;;;;;;1.73;0.30;;;24.80;45.80;;;;;;5066683;28;20124;-66
2022/04/13 10:23:22;;;;;;;0.47;0.20;;;24.90;45.80;;;;;;5066548;28;20547;-64
2022/04/13 10:25:50;;;;;;;1.42;0.30;;;24.90;45.80;;;;;;5049861;28;20098;-66
2022/04/13 10:28:26;;;;;;;4.20;0.13;;;24.90;45.70;;;;;;5065044;28;20463;-66
2022/04/13 10:30:53;;;;;;;1.55;0.63;;;24.90;45.70;;;;;;5066346;28;20098;-66
2022/04/13 10:33:21;;;;;;;2.05;0.30;;;24.90;45.70;;;;;;5065359;28;20086;-66
2022/04/13 10:35:49;;;;;;;1.33;0.20;;;24.90;45.70;;;;;;5050956;28;20045;-66
2022/04/13 10:38:16;;;;;;;0.30;0.30;;;24.90;45.60;;;;;;5065806;28;20044;-65
2022/04/13 10:40:44;;;;;;;1.88;0.30;;;24.90;45.60;;;;;;5064113;28;20398;-67
2022/04/13 10:43:13;;;;;;;0.30;0.20;;;24.90;45.60;;;;;;5063245;28;20088;-66
2022/04/13 10:45:47;;;;;;;1.25;0.10;;;25.00;45.60;;;;;;5063848;28;20515;-67
2022/04/13 10:48:20;;;;;;;1.65;0.25;;;24.90;45.50;;;;;;5059872;28;20497;-66
2022/04/13 10:50:54;;;;;;;0.22;0.20;;;24.90;45.50;;;;;;5032474;28;20040;-66
2022/04/13 10:53:25;;;;;;;1.02;0.20;;;25.00;45.60;;;;;;5048472;28;20105;-66
2022/04/13 10:55:58;;;;;;;1.23;0.22;;;24.90;45.50;;;;;;5066396;28;20471;-66
2022/04/13 10:58:36;;;;;;;0.85;0.10;;;25.00;45.50;;;;;;5065758;28;20048;-66
2022/04/13 11:01:09;;;;;;;1.02;0.15;;;25.00;45.50;;;;;;5065163;28;20059;-66
2022/04/13 11:03:36;;;;;;;0.10;0.10;;;25.00;45.50;;;;;;5047894;28;20390;-66
2022/04/13 11:06:06;;;;;;;0.20;0.20;;;24.90;45.40;;;;;;5047933;28;20523;-67
2022/04/13 11:08:44;;;;;;;2.25;0.52;;;25.00;45.40;;;;;;5065329;28;20098;-67
2022/04/13 11:11:17;;;;;;;1.88;0.10;;;25.00;45.40;;;;;;5062915;28;20372;-66
2022/04/13 11:13:47;;;;;;;1.75;0.38;;;25.00;46.00;;;;;;5064434;28;20136;-66
2022/04/13 11:16:17;;;;;;;0.15;0.10;;;25.00;45.40;;;;;;5063728;28;20528;-66
2022/04/13 11:19:20;;;;;;;0.55;0.10;;;25.00;45.30;;;;;;5063739;28;20078;-67
2022/04/13 11:22:10;;;;;;;0.73;0.10;;;25.00;45.20;;;;;;5067182;28;20040;-67
2022/04/13 11:24:40;;;;;;;0.90;0.68;;;25.00;45.30;;;;;;5050853;28;20155;-67
2022/04/13 11:27:08;;;;;;;0.20;0.10;;;25.00;45.30;;;;;;5069641;28;20090;-67
2022/04/13 11:29:36;;;;;;;1.38;0.10;;;25.00;45.30;;;;;;5051195;28;20125;-66
2022/04/13 11:32:13;;;;;;;1.85;0.20;;;25.00;45.30;;;;;;5071106;28;20044;-66
2022/04/13 11:34:43;;;;;;;0.50;0.20;;;25.10;45.40;;;;;;5058131;28;20148;-66
2022/04/13 11:37:14;;;;;;;0.98;0.17;;;25.00;45.30;;;;;;5065397;28;20048;-66
2022/04/13 11:39:50;;;;;;;2.92;0.13;;;25.00;45.30;;;;;;5068276;28;20592;-66
2022/04/13 11:42:33;;;;;;;1.08;0.65;;;25.10;45.30;;;;;;5069216;28;20416;-61
2022/04/13 11:45:03;;;;;;;0.38;0.10;;;25.00;45.20;;;;;;5042271;28;20128;-67
2022/04/13 11:47:39;;;;;;;2.03;0.40;;;25.00;45.20;;;;;;5051333;28;20127;-67
2022/04/13 11:50:22;;;;;;;0.30;0.20;;;25.10;45.30;;;;;;5070344;28;20040;-67
2022/04/13 11:52:51;;;;;;;1.48;0.75;;;25.10;45.20;;;;;;5070516;28;20048;-66
2022/04/13 11:55:20;;;;;;;0.32;0.10;;;25.00;45.20;;;;;;5065786;28;20109;-67
2022/04/13 11:58:19;;;;;;;0.57;0.10;;;25.00;45.20;;;;;;5066734;28;20064;-66
2022/04/13 12:00:52;;;;;;;0.73;0.20;;;25.10;45.20;;;;;;5051032;28;20048;-67
2022/04/13 12:03:23;;;;;;;0.43;0.10;;;25.10;45.30;;;;;;5067896;28;20093;-66
2022/04/13 12:05:52;;;;;;;0.10;0.10;;;25.10;45.20;;;;;;5054060;28;20048;-67
2022/04/13 12:08:22;;;;;;;0.65;0.10;;;25.10;45.20;;;;;;5068883;28;20751;-67
2022/04/13 12:10:51;;;;;;;0.43;0.15;;;25.10;45.20;;;;;;5056516;28;20048;-66
2022/04/13 12:13:18;;;;;;;0.60;0.13;;;25.10;45.20;;;;;;5063759;28;20075;-67
2022/04/13 12:15:49;;;;;;;0.47;0.20;;;25.10;45.20;;;;;;5068815;28;20775;-67
2022/04/13 12:18:17;;;;;;;0.28;0.10;;;25.10;45.20;;;;;;5068861;28;20119;-66
2022/04/13 12:20:47;;;;;;;0.30;0.10;;;25.10;45.20;;;;;;5052968;28;20036;-67
2022/04/13 12:23:19;;;;;;;0.40;0.20;;;25.10;45.20;;;;;;5063793;28;20067;-67
2022/04/13 12:25:48;;;;;;;0.40;0.10;;;25.10;45.20;;;;;;5069165;28;20068;-66
2022/04/13 12:28:16;;;;;;;0.95;0.20;;;25.10;45.10;;;;;;5068339;28;20049;-67
2022/04/13 12:30:43;;;;;;;0.10;0.10;;;25.10;45.20;;;;;;5065907;28;20041;-67
2022/04/13 12:33:15;;;;;;;0.10;0.10;;;25.10;45.10;;;;;;5068309;28;20044;-67
2022/04/13 12:35:52;;;;;;;0.68;0.10;;;25.10;45.10;;;;;;5068100;28;20048;-67
2022/04/13 12:38:30;;;;;;;0.35;0.10;;;25.10;45.10;;;;;;5065436;28;20416;-65
2022/04/13 12:41:09;;;;;;;0.10;0.10;;;25.10;45.10;;;;;;5068062;28;20127;-66
2022/04/13 12:43:39;;;;;;;0.25;0.25;;;25.10;45.10;;;;;;5068147;28;20040;-66
2022/04/13 12:46:10;;;;;;;0.43;0.10;;;25.10;45.10;;;;;;5068135;28;20568;-67
2022/04/13 12:48:38;;;;;;;0.17;0.17;;;25.10;45.10;;;;;;5067879;28;20409;-67
2022/04/13 12:51:07;;;;;;;1.45;0.10;;;25.10;45.00;;;;;;5049983;28;20441;-67
2022/04/13 12:53:46;;;;;;;0.32;0.20;;;25.10;45.00;;;;;;5066575;28;20048;-66
2022/04/13 12:56:18;;;;;;;0.60;0.10;;;25.10;45.00;;;;;;5065648;28;20045;-67